createdAt,value
2023-03-26T00:01:30.775Z,2.62
2023-03-26T00:03:12.107Z,2.54
2023-03-26T00:04:53.381Z,2.26
2023-03-26T00:06:34.726Z,2.55
2023-03-26T00:08:16.024Z,2.96
2023-03-26T00:09:57.305Z,2.53
2023-03-26T00:11:38.585Z,2.53
2023-03-26T00:13:19.883Z,2.39
2023-03-26T00:15:01.186Z,2.86
2023-03-26T00:16:42.651Z,2.95
2023-03-26T00:18:24.053Z,3.08
2023-03-26T00:20:05.318Z,2.37
2023-03-26T00:21:46.617Z,1.74
2023-03-26T00:23:27.998Z,1.11
2023-03-26T00:25:09.271Z,1.03
2023-03-26T00:26:50.631Z,1.05
2023-03-26T00:28:31.938Z,0.82
2023-03-26T00:30:13.243Z,0.59
2023-03-26T00:31:54.525Z,0.64
2023-03-26T00:33:35.793Z,1.21
2023-03-26T00:35:17.087Z,1.51
2023-03-26T00:36:58.346Z,1.72
2023-03-26T00:38:39.653Z,1.37
2023-03-26T00:40:20.945Z,1.10
2023-03-26T00:42:02.216Z,1.57
2023-03-26T00:43:43.495Z,1.21
2023-03-26T00:45:24.823Z,1.37
2023-03-26T00:47:06.128Z,1.87
2023-03-26T00:48:47.454Z,2.19
2023-03-26T00:50:28.740Z,1.12
2023-03-26T00:52:10.018Z,0.70
2023-03-26T00:53:51.322Z,0.60
2023-03-26T00:55:32.607Z,1.21
2023-03-26T00:57:20.207Z,1.70
2023-03-26T00:59:07.089Z,1.85
2023-03-26T01:00:48.405Z,2.10
2023-03-26T01:02:29.774Z,2.30
2023-03-26T01:04:11.274Z,2.42
2023-03-26T01:05:52.988Z,2.41
2023-03-26T01:07:34.635Z,2.53
2023-03-26T01:09:16.013Z,2.72
2023-03-26T01:10:57.405Z,2.84
2023-03-26T01:12:38.705Z,2.96
2023-03-26T01:14:19.967Z,2.95
2023-03-26T01:16:01.386Z,2.70
2023-03-26T01:17:42.757Z,2.73
2023-03-26T01:19:24.085Z,2.60
2023-03-26T01:21:05.424Z,1.65
2023-03-26T01:22:46.753Z,1.18
2023-03-26T01:24:28.322Z,1.29
2023-03-26T01:26:09.613Z,1.78
2023-03-26T01:27:50.905Z,1.86
2023-03-26T01:29:32.180Z,1.30
2023-03-26T01:31:13.454Z,1.37
2023-03-26T01:32:54.801Z,1.41
2023-03-26T01:34:36.145Z,1.44
2023-03-26T01:36:17.409Z,1.19
2023-03-26T01:37:58.869Z,1.59
2023-03-26T01:39:40.273Z,1.44
2023-03-26T01:41:21.565Z,1.20
2023-03-26T01:43:02.839Z,0.94
2023-03-26T01:44:44.167Z,0.95
2023-03-26T01:46:25.546Z,0.94
2023-03-26T01:48:06.958Z,1.09
2023-03-26T01:49:48.281Z,1.07
2023-03-26T01:51:29.645Z,1.20
2023-03-26T01:53:10.940Z,1.76
2023-03-26T01:54:52.258Z,2.18
2023-03-26T01:56:33.565Z,2.38
2023-03-26T01:58:14.846Z,1.72
2023-03-26T01:59:56.160Z,1.93
2023-03-26T02:01:37.624Z,2.54
2023-03-26T02:03:19.287Z,2.65
2023-03-26T02:05:00.669Z,2.70
2023-03-26T02:06:41.976Z,3.07
2023-03-26T02:08:23.494Z,3.23
2023-03-26T02:10:04.867Z,3.16
2023-03-26T02:11:46.157Z,2.49
2023-03-26T02:13:27.508Z,1.84
2023-03-26T02:15:08.806Z,2.01
2023-03-26T02:16:50.094Z,2.00
2023-03-26T02:18:31.392Z,1.39
2023-03-26T02:20:12.667Z,1.26
2023-03-26T02:21:53.936Z,1.86
2023-03-26T02:23:35.247Z,2.42
2023-03-26T02:25:16.548Z,2.78
2023-03-26T02:26:57.809Z,2.90
2023-03-26T02:28:39.109Z,1.98
2023-03-26T02:30:20.368Z,1.85
2023-03-26T02:32:01.686Z,2.22
2023-03-26T02:33:43.068Z,2.45
2023-03-26T02:35:24.397Z,2.17
2023-03-26T02:37:05.721Z,1.88
2023-03-26T02:38:47.042Z,2.29
2023-03-26T02:40:28.315Z,2.39
2023-03-26T02:42:09.594Z,2.65
2023-03-26T02:43:50.913Z,2.74
2023-03-26T02:45:32.249Z,1.92
2023-03-26T02:47:13.610Z,1.45
2023-03-26T02:48:54.917Z,1.78
2023-03-26T02:50:36.204Z,1.94
2023-03-26T02:52:17.494Z,1.59
2023-03-26T02:53:58.781Z,1.95
2023-03-26T02:55:40.089Z,2.45
2023-03-26T02:57:21.405Z,2.70
2023-03-26T02:59:02.683Z,2.32
2023-03-26T03:00:43.986Z,2.24
2023-03-26T03:02:25.403Z,2.42
2023-03-26T03:04:06.732Z,2.67
2023-03-26T03:05:48.033Z,2.70
2023-03-26T03:07:29.374Z,2.59
2023-03-26T03:09:10.675Z,1.64
2023-03-26T03:10:51.969Z,1.16
2023-03-26T03:12:33.273Z,1.86
2023-03-26T03:14:14.581Z,2.00
2023-03-26T03:15:56.090Z,2.24
2023-03-26T03:17:37.602Z,1.84
2023-03-26T03:19:18.983Z,1.25
2023-03-26T03:21:00.298Z,1.00
2023-03-26T03:22:41.588Z,1.08
2023-03-26T03:24:22.867Z,1.16
2023-03-26T03:26:04.168Z,1.18
2023-03-26T03:27:45.474Z,1.60
2023-03-26T03:29:26.751Z,2.09
2023-03-26T03:31:08.124Z,1.76
2023-03-26T03:32:49.471Z,1.03
2023-03-26T03:34:30.783Z,1.12
2023-03-26T03:36:20.560Z,1.10
2023-03-26T03:38:02.403Z,1.21
2023-03-26T03:39:43.697Z,1.74
2023-03-26T03:41:25.035Z,1.73
2023-03-26T03:43:06.338Z,1.83
2023-03-26T03:44:47.668Z,1.75
2023-03-26T03:46:29.015Z,1.01
2023-03-26T03:48:10.381Z,1.43
2023-03-26T03:49:51.696Z,1.79
2023-03-26T03:51:32.990Z,1.95
2023-03-26T03:53:14.284Z,1.67
2023-03-26T03:54:55.580Z,1.29
2023-03-26T03:56:36.919Z,1.58
2023-03-26T03:58:18.235Z,1.23
2023-03-26T03:59:59.509Z,1.25
2023-03-26T04:01:40.852Z,1.53
2023-03-26T04:03:33.176Z,1.01
2023-03-26T04:05:15.762Z,1.69
2023-03-26T04:06:57.085Z,2.11
2023-03-26T04:08:38.393Z,2.43
2023-03-26T04:10:19.725Z,2.58
2023-03-26T04:12:01.064Z,2.61
2023-03-26T04:13:42.380Z,2.75
2023-03-26T04:15:23.688Z,2.52
2023-03-26T04:17:05.005Z,1.40
2023-03-26T04:18:46.288Z,2.02
2023-03-26T04:20:27.574Z,2.46
2023-03-26T04:22:08.854Z,2.27
2023-03-26T04:23:50.143Z,1.22
2023-03-26T04:25:31.427Z,0.84
2023-03-26T04:27:12.721Z,1.40
2023-03-26T04:28:54.030Z,1.60
2023-03-26T04:30:35.285Z,0.98
2023-03-26T04:32:16.657Z,1.53
2023-03-26T04:33:57.966Z,1.79
2023-03-26T04:35:39.289Z,2.16
2023-03-26T04:37:20.631Z,2.53
2023-03-26T04:39:02.054Z,2.20
2023-03-26T04:40:43.336Z,1.74
2023-03-26T04:42:24.616Z,2.40
2023-03-26T04:44:05.925Z,2.54
2023-03-26T04:45:47.206Z,2.56
2023-03-26T04:47:28.475Z,2.87
2023-03-26T04:49:09.790Z,3.07
2023-03-26T04:50:51.046Z,3.44
2023-03-26T04:52:32.312Z,3.45
2023-03-26T04:54:13.687Z,3.56
2023-03-26T04:55:55.145Z,3.83
2023-03-26T04:57:36.585Z,4.02
2023-03-26T04:59:17.930Z,3.60
2023-03-26T05:00:59.228Z,2.50
2023-03-26T05:02:51.278Z,2.73
2023-03-26T05:04:32.643Z,2.76
2023-03-26T05:06:13.985Z,2.63
2023-03-26T05:07:55.248Z,2.68
2023-03-26T05:09:36.516Z,1.89
2023-03-26T05:11:17.814Z,1.79
2023-03-26T05:12:59.060Z,2.36
2023-03-26T05:14:40.334Z,2.55
2023-03-26T05:16:21.665Z,2.42
2023-03-26T05:18:03.043Z,2.44
2023-03-26T05:19:44.386Z,2.93
2023-03-26T05:21:25.670Z,3.19
2023-03-26T05:23:07.014Z,3.50
2023-03-26T05:24:48.303Z,3.79
2023-03-26T05:26:29.579Z,3.53
2023-03-26T05:28:10.929Z,3.91
2023-03-26T05:29:52.248Z,3.26
2023-03-26T05:31:33.535Z,2.96
2023-03-26T05:33:15.000Z,3.29
2023-03-26T05:34:56.398Z,3.18
2023-03-26T05:36:37.700Z,3.13
2023-03-26T05:38:19.000Z,3.25
2023-03-26T05:40:00.306Z,3.43
2023-03-26T05:41:41.596Z,3.70
2023-03-26T05:43:22.890Z,3.63
2023-03-26T05:45:04.218Z,3.58
2023-03-26T05:46:45.502Z,4.01
2023-03-26T05:48:26.781Z,4.23
2023-03-26T05:50:08.083Z,4.16
2023-03-26T05:51:49.633Z,4.29
2023-03-26T05:53:30.979Z,4.52
2023-03-26T05:55:12.302Z,4.78
2023-03-26T05:56:53.643Z,4.71
2023-03-26T05:58:34.933Z,4.35
2023-03-26T06:00:16.218Z,3.84
2023-03-26T06:01:57.532Z,3.36
2023-03-26T06:03:39.010Z,2.53
2023-03-26T06:05:20.473Z,2.43
2023-03-26T06:07:01.770Z,2.56
2023-03-26T06:08:43.036Z,2.57
2023-03-26T06:10:24.349Z,2.84
2023-03-26T06:12:05.657Z,3.02
2023-03-26T06:13:46.976Z,3.13
2023-03-26T06:15:28.313Z,3.19
2023-03-26T06:17:09.882Z,2.78
2023-03-26T06:18:51.251Z,3.01
2023-03-26T06:20:38.072Z,3.05
2023-03-26T06:22:19.393Z,3.40
2023-03-26T06:24:00.681Z,3.45
2023-03-26T06:25:43.161Z,3.35
2023-03-26T06:27:24.476Z,3.62
2023-03-26T06:29:05.845Z,3.80
2023-03-26T06:30:47.118Z,2.62
2023-03-26T06:32:28.434Z,2.37
2023-03-26T06:34:09.734Z,1.71
2023-03-26T06:35:51.113Z,2.33
2023-03-26T06:37:32.450Z,2.50
2023-03-26T06:39:13.795Z,2.11
2023-03-26T06:40:55.564Z,1.99
2023-03-26T06:43:09.090Z,2.10
2023-03-26T06:44:38.216Z,2.45
2023-03-26T06:46:19.546Z,2.97
2023-03-26T06:48:00.932Z,3.31
2023-03-26T06:49:44.231Z,3.36
2023-03-26T06:51:26.576Z,3.81
2023-03-26T06:53:07.876Z,3.95
2023-03-26T06:54:49.235Z,4.08
2023-03-26T06:56:30.592Z,4.33
2023-03-26T06:58:11.883Z,4.52
2023-03-26T06:59:53.190Z,4.47
2023-03-26T07:01:34.541Z,3.62
2023-03-26T07:03:15.876Z,3.26
2023-03-26T07:04:57.160Z,3.51
2023-03-26T07:06:38.464Z,3.34
2023-03-26T07:08:19.904Z,3.60
2023-03-26T07:10:01.235Z,3.43
2023-03-26T07:11:42.639Z,3.64
2023-03-26T07:13:23.943Z,4.26
2023-03-26T07:15:05.247Z,4.40
2023-03-26T07:16:46.608Z,4.39
2023-03-26T07:18:27.900Z,4.57
2023-03-26T07:20:09.232Z,4.64
2023-03-26T07:21:50.562Z,4.81
2023-03-26T07:23:31.857Z,5.00
2023-03-26T07:25:13.198Z,4.92
2023-03-26T07:26:54.513Z,4.18
2023-03-26T07:28:35.790Z,4.49
2023-03-26T07:30:17.153Z,4.79
2023-03-26T07:31:58.520Z,4.94
2023-03-26T07:33:39.832Z,4.72
2023-03-26T07:35:21.201Z,4.77
2023-03-26T07:37:02.698Z,5.18
2023-03-26T07:38:44.004Z,5.33
2023-03-26T07:40:25.322Z,5.26
2023-03-26T07:42:06.668Z,4.62
2023-03-26T07:43:47.965Z,4.44
2023-03-26T07:45:29.387Z,3.67
2023-03-26T07:47:10.779Z,3.37
2023-03-26T07:48:52.110Z,3.34
2023-03-26T07:50:33.548Z,3.12
2023-03-26T07:52:14.862Z,3.21
2023-03-26T07:53:56.262Z,3.28
2023-03-26T07:55:37.550Z,3.53
2023-03-26T07:57:18.884Z,3.74
2023-03-26T07:59:00.295Z,3.64
2023-03-26T08:00:41.597Z,3.50
2023-03-26T08:02:22.933Z,3.61
2023-03-26T08:04:26.346Z,3.45
2023-03-26T08:06:27.821Z,3.70
2023-03-26T08:08:29.140Z,3.67
2023-03-26T08:10:30.429Z,3.77
2023-03-26T08:12:31.688Z,4.06
2023-03-26T08:14:32.960Z,4.23
2023-03-26T08:16:34.216Z,4.50
2023-03-26T08:18:35.492Z,4.46
2023-03-26T08:20:16.895Z,4.67
2023-03-26T08:22:18.167Z,4.61
2023-03-26T08:24:19.441Z,4.62
2023-03-26T08:26:20.706Z,4.57
2023-03-26T08:28:02.347Z,5.01
2023-03-26T08:30:03.644Z,5.28
2023-03-26T08:32:04.887Z,4.97
2023-03-26T08:34:06.137Z,4.57
2023-03-26T08:36:07.433Z,4.93
2023-03-26T08:38:08.727Z,5.35
2023-03-26T08:40:09.960Z,5.72
2023-03-26T08:42:11.218Z,5.45
2023-03-26T08:44:12.501Z,5.55
2023-03-26T08:46:13.793Z,5.75
2023-03-26T08:48:15.094Z,5.98
2023-03-26T08:50:16.606Z,6.18
2023-03-26T08:51:57.938Z,6.46
2023-03-26T08:53:39.248Z,6.05
2023-03-26T08:55:20.550Z,5.98
2023-03-26T08:57:01.864Z,6.18
2023-03-26T08:58:43.205Z,6.04
2023-03-26T09:00:24.536Z,5.76
2023-03-26T09:02:05.891Z,5.84
2023-03-26T09:03:47.255Z,5.55
2023-03-26T09:05:29.442Z,5.52
2023-03-26T09:07:11.279Z,5.73
2023-03-26T09:08:54.152Z,5.90
2023-03-26T09:10:36.316Z,5.90
2023-03-26T09:12:18.427Z,5.75
2023-03-26T09:14:00.312Z,5.74
2023-03-26T09:15:42.583Z,5.85
2023-03-26T09:17:24.532Z,5.48
2023-03-26T09:19:06.501Z,4.82
2023-03-26T09:20:48.046Z,4.53
2023-03-26T09:22:29.778Z,3.97
2023-03-26T09:24:11.174Z,4.63
2023-03-26T09:25:52.876Z,5.04
2023-03-26T09:27:34.924Z,5.37
2023-03-26T09:29:17.000Z,5.59
2023-03-26T09:30:58.352Z,5.75
2023-03-26T09:32:39.912Z,5.97
2023-03-26T09:34:21.695Z,5.70
2023-03-26T09:36:03.463Z,5.73
2023-03-26T09:37:57.429Z,5.74
2023-03-26T09:39:40.132Z,5.59
2023-03-26T09:41:21.397Z,5.59
2023-03-26T09:43:02.719Z,5.86
2023-03-26T09:44:44.046Z,6.08
2023-03-26T09:46:25.327Z,6.51
2023-03-26T09:48:06.633Z,6.67
2023-03-26T09:49:47.959Z,6.37
2023-03-26T09:51:29.228Z,6.68
2023-03-26T09:53:10.500Z,6.98
2023-03-26T09:54:51.802Z,6.93
2023-03-26T09:56:33.155Z,7.29
2023-03-26T09:58:14.461Z,7.25
2023-03-26T09:59:55.848Z,7.58
2023-03-26T10:01:37.203Z,7.75
2023-03-26T10:03:18.623Z,7.59
2023-03-26T10:04:59.990Z,7.33
2023-03-26T10:06:42.036Z,7.54
2023-03-26T10:08:23.330Z,7.20
2023-03-26T10:10:04.633Z,7.45
2023-03-26T10:11:45.959Z,7.65
2023-03-26T10:13:27.253Z,7.35
2023-03-26T10:15:08.616Z,7.36
2023-03-26T10:16:50.005Z,7.26
2023-03-26T10:18:31.336Z,7.11
2023-03-26T10:20:12.602Z,6.88
2023-03-26T10:21:53.916Z,6.61
2023-03-26T10:23:35.233Z,6.60
2023-03-26T10:25:16.577Z,6.16
2023-03-26T10:27:09.979Z,5.89
2023-03-26T10:28:54.752Z,6.13
2023-03-26T10:30:36.096Z,5.91
2023-03-26T10:32:17.408Z,5.63
2023-03-26T10:33:58.748Z,5.52
2023-03-26T10:35:40.109Z,5.41
2023-03-26T10:37:21.495Z,5.20
2023-03-26T10:39:02.842Z,5.13
2023-03-26T10:40:44.157Z,5.53
2023-03-26T10:42:25.455Z,5.63
2023-03-26T10:44:08.735Z,5.83
2023-03-26T10:45:50.456Z,5.64
2023-03-26T10:47:31.785Z,5.21
2023-03-26T10:49:13.117Z,5.04
2023-03-26T10:50:54.797Z,5.31
2023-03-26T10:52:36.402Z,5.29
2023-03-26T10:54:17.676Z,5.31
2023-03-26T10:55:58.947Z,4.93
2023-03-26T10:57:40.236Z,5.30
2023-03-26T10:59:21.517Z,5.26
2023-03-26T11:01:05.534Z,5.68
2023-03-26T11:02:47.519Z,6.09
2023-03-26T11:04:28.830Z,6.53
2023-03-26T11:06:10.267Z,5.98
2023-03-26T11:07:51.658Z,6.15
2023-03-26T11:09:32.934Z,5.42
2023-03-26T11:11:14.245Z,4.99
2023-03-26T11:12:55.591Z,4.61
2023-03-26T11:14:36.884Z,4.44
2023-03-26T11:16:18.203Z,4.82
2023-03-26T11:17:59.546Z,4.73
2023-03-26T11:19:40.877Z,5.14
2023-03-26T11:21:22.197Z,4.45
2023-03-26T11:23:03.538Z,3.81
2023-03-26T11:24:44.832Z,4.11
2023-03-26T11:26:26.126Z,4.01
2023-03-26T11:28:07.436Z,3.92
2023-03-26T11:29:48.730Z,3.88
2023-03-26T11:31:30.054Z,3.32
2023-03-26T11:33:11.430Z,3.63
2023-03-26T11:34:52.694Z,3.69
2023-03-26T11:36:33.990Z,4.04
2023-03-26T11:38:15.278Z,3.89
2023-03-26T11:39:56.857Z,3.83
2023-03-26T11:41:38.164Z,3.99
2023-03-26T11:43:19.570Z,4.52
2023-03-26T11:45:00.844Z,4.81
2023-03-26T11:46:42.227Z,5.17
2023-03-26T11:48:23.636Z,5.24
2023-03-26T11:50:04.998Z,5.31
2023-03-26T11:51:46.302Z,5.01
2023-03-26T11:53:27.595Z,5.02
2023-03-26T11:55:08.878Z,4.84
2023-03-26T11:57:05.709Z,5.10
2023-03-26T11:58:47.945Z,5.56
2023-03-26T12:00:29.267Z,5.74
2023-03-26T12:02:10.556Z,6.46
2023-03-26T12:03:51.866Z,6.73
2023-03-26T12:05:33.161Z,6.90
2023-03-26T12:07:14.464Z,6.66
2023-03-26T12:08:55.788Z,6.45
2023-03-26T12:10:37.149Z,6.71
2023-03-26T12:12:18.557Z,6.54
2023-03-26T12:13:59.877Z,6.88
2023-03-26T12:15:41.152Z,6.79
2023-03-26T12:17:22.472Z,7.06
2023-03-26T12:19:12.804Z,7.05
2023-03-26T12:20:54.268Z,6.48
2023-03-26T12:22:35.632Z,6.72
2023-03-26T12:24:16.919Z,7.29
2023-03-26T12:25:58.174Z,7.44
2023-03-26T12:27:39.452Z,7.39
2023-03-26T12:29:20.867Z,7.32
2023-03-26T12:31:02.140Z,6.87
2023-03-26T12:32:46.742Z,6.99
2023-03-26T12:34:28.342Z,7.02
2023-03-26T12:36:09.665Z,7.16
2023-03-26T12:37:50.989Z,6.80
2023-03-26T12:40:07.726Z,6.87
2023-03-26T12:43:51.567Z,6.39
2023-03-26T12:44:51.580Z,7.07
2023-03-26T12:45:37.031Z,7.20
2023-03-26T12:48:01.144Z,7.23
2023-03-26T12:49:19.749Z,7.28
2023-03-26T12:51:01.096Z,7.67
2023-03-26T12:52:42.406Z,7.09
2023-03-26T12:54:23.776Z,6.64
2023-03-26T12:56:05.216Z,6.68
2023-03-26T12:57:46.501Z,6.77
2023-03-26T12:59:27.791Z,6.86
2023-03-26T13:01:09.177Z,6.69
2023-03-26T13:02:50.550Z,6.73
2023-03-26T13:04:31.934Z,7.24
2023-03-26T13:06:13.303Z,6.88
2023-03-26T13:07:54.629Z,6.80
2023-03-26T13:09:35.967Z,7.16
2023-03-26T13:11:17.346Z,7.21
2023-03-26T13:12:58.800Z,6.78
2023-03-26T13:14:40.096Z,6.29
2023-03-26T13:16:21.483Z,7.04
2023-03-26T13:18:02.847Z,7.58
2023-03-26T13:19:44.151Z,7.74
2023-03-26T13:21:25.552Z,7.05
2023-03-26T13:23:06.840Z,6.60
2023-03-26T13:24:48.101Z,5.08
2023-03-26T13:26:29.514Z,5.73
2023-03-26T13:28:10.808Z,5.32
2023-03-26T13:29:52.089Z,5.74
2023-03-26T13:31:33.413Z,5.85
2023-03-26T13:33:14.720Z,5.51
2023-03-26T13:34:56.077Z,5.95
2023-03-26T13:36:37.529Z,6.85
2023-03-26T13:38:18.856Z,7.76
2023-03-26T13:40:00.286Z,7.74
2023-03-26T13:41:41.680Z,7.58
2023-03-26T13:43:23.057Z,7.92
2023-03-26T13:45:04.817Z,7.95
2023-03-26T13:46:47.438Z,7.91
2023-03-26T13:48:28.730Z,7.29
2023-03-26T13:50:10.078Z,7.38
2023-03-26T13:51:51.408Z,7.06
2023-03-26T13:53:32.732Z,6.38
2023-03-26T13:55:13.993Z,5.30
2023-03-26T13:56:55.377Z,4.89
2023-03-26T13:58:36.757Z,4.59
2023-03-26T14:00:18.074Z,4.85
2023-03-26T14:01:59.393Z,4.73
2023-03-26T14:03:40.749Z,4.75
2023-03-26T14:05:22.066Z,4.60
2023-03-26T14:07:03.339Z,4.97
2023-03-26T14:08:44.648Z,5.31
2023-03-26T14:10:25.950Z,5.57
2023-03-26T14:12:07.252Z,6.14
2023-03-26T14:14:02.953Z,6.20
2023-03-26T14:15:44.248Z,6.01
2023-03-26T14:17:25.642Z,5.78
2023-03-26T14:19:06.956Z,5.56
2023-03-26T14:20:48.252Z,6.11
2023-03-26T14:22:29.553Z,6.15
2023-03-26T14:24:10.839Z,6.09
2023-03-26T14:25:52.086Z,6.50
2023-03-26T14:27:33.414Z,5.51
2023-03-26T14:29:14.729Z,4.40
2023-03-26T14:30:56.312Z,4.79
2023-03-26T14:32:38.054Z,5.17
2023-03-26T14:34:19.380Z,5.29
2023-03-26T14:36:00.729Z,5.10
2023-03-26T14:37:42.096Z,4.93
2023-03-26T14:39:23.462Z,5.21
2023-03-26T14:41:04.783Z,4.52
2023-03-26T14:42:46.078Z,3.92
2023-03-26T14:44:27.421Z,3.87
2023-03-26T14:46:08.723Z,3.62
2023-03-26T14:47:50.284Z,3.56
2023-03-26T14:49:31.704Z,3.05
2023-03-26T14:51:12.982Z,2.50
2023-03-26T14:53:00.834Z,2.11
2023-03-26T14:54:42.933Z,2.07
2023-03-26T14:56:24.266Z,2.62
2023-03-26T14:58:05.596Z,2.59
2023-03-26T14:59:46.894Z,1.70
2023-03-26T15:01:28.249Z,1.66
2023-03-26T15:03:09.709Z,1.51
2023-03-26T15:04:51.066Z,2.15
2023-03-26T15:06:32.418Z,2.27
2023-03-26T15:08:13.780Z,2.09
2023-03-26T15:09:55.163Z,2.14
2023-03-26T15:11:36.498Z,2.65
2023-03-26T15:13:17.800Z,2.85
2023-03-26T15:14:59.084Z,3.18
2023-03-26T15:16:40.432Z,2.94
2023-03-26T15:18:21.748Z,1.95
2023-03-26T15:20:03.017Z,1.77
2023-03-26T15:21:44.741Z,1.99
2023-03-26T15:23:26.045Z,2.06
2023-03-26T15:25:07.483Z,2.28
2023-03-26T15:26:49.128Z,2.43
2023-03-26T15:28:30.716Z,2.12
2023-03-26T15:30:12.038Z,2.57
2023-03-26T15:31:53.495Z,2.61
2023-03-26T15:33:34.799Z,2.20
2023-03-26T15:35:16.120Z,2.31
2023-03-26T15:36:57.433Z,2.21
2023-03-26T15:38:38.753Z,2.24
2023-03-26T15:40:20.165Z,2.07
2023-03-26T15:42:01.459Z,2.49
2023-03-26T15:43:42.835Z,2.41
2023-03-26T15:45:24.134Z,2.67
2023-03-26T15:47:05.434Z,1.35
2023-03-26T15:48:47.927Z,1.94
2023-03-26T15:50:29.242Z,1.87
2023-03-26T15:52:10.570Z,1.66
2023-03-26T15:53:51.927Z,1.91
2023-03-26T15:55:33.311Z,1.61
2023-03-26T15:57:14.623Z,2.28
2023-03-26T15:58:55.958Z,2.64
2023-03-26T16:00:37.283Z,3.08
2023-03-26T16:02:18.575Z,3.22
2023-03-26T16:03:59.871Z,2.98
2023-03-26T16:05:41.224Z,3.02
2023-03-26T16:07:22.549Z,3.19
2023-03-26T16:09:03.847Z,3.25
2023-03-26T16:10:45.117Z,2.77
2023-03-26T16:12:26.465Z,2.79
2023-03-26T16:14:07.741Z,2.44
2023-03-26T16:15:49.060Z,1.90
2023-03-26T16:17:30.439Z,2.08
2023-03-26T16:19:11.761Z,1.03
2023-03-26T16:20:56.061Z,1.40
2023-03-26T16:22:42.973Z,1.33
2023-03-26T16:24:25.186Z,1.46
2023-03-26T16:26:06.487Z,1.84
2023-03-26T16:27:47.773Z,1.65
2023-03-26T16:29:29.109Z,1.84
2023-03-26T16:31:35.022Z,2.49
2023-03-26T16:33:11.740Z,2.55
2023-03-26T16:34:53.048Z,1.98
2023-03-26T16:36:34.394Z,1.15
2023-03-26T16:38:15.873Z,1.35
2023-03-26T16:39:57.325Z,1.67
2023-03-26T16:41:38.630Z,2.16
2023-03-26T16:43:19.915Z,2.29
2023-03-26T16:45:01.171Z,2.18
2023-03-26T16:46:42.476Z,2.56
2023-03-26T16:48:24.349Z,2.74
2023-03-26T16:50:09.023Z,2.71
2023-03-26T16:51:50.688Z,2.82
2023-03-26T16:53:31.972Z,2.93
2023-03-26T16:55:13.270Z,2.49
2023-03-26T16:56:54.615Z,2.36
2023-03-26T16:58:36.015Z,2.50
2023-03-26T17:00:17.336Z,2.38
2023-03-26T17:01:58.727Z,1.85
2023-03-26T17:03:40.101Z,2.07
2023-03-26T17:05:21.418Z,2.12
2023-03-26T17:07:02.713Z,2.22
2023-03-26T17:08:44.006Z,2.25
2023-03-26T17:10:25.283Z,2.40
2023-03-26T17:12:06.588Z,2.10
2023-03-26T17:13:47.872Z,2.35
2023-03-26T17:15:29.153Z,2.32
2023-03-26T17:17:10.459Z,1.98
2023-03-26T17:18:51.753Z,1.80
2023-03-26T17:20:33.118Z,1.07
2023-03-26T17:22:14.524Z,0.94
2023-03-26T17:23:55.804Z,0.79
2023-03-26T17:25:37.138Z,1.07
2023-03-26T17:27:18.427Z,1.30
2023-03-26T17:28:59.851Z,1.65
2023-03-26T17:30:41.451Z,1.66
2023-03-26T17:32:22.860Z,1.38
2023-03-26T17:34:04.172Z,1.35
2023-03-26T17:35:45.513Z,1.70
2023-03-26T17:37:26.821Z,1.19
2023-03-26T17:39:08.094Z,1.05
2023-03-26T17:40:52.234Z,1.43
2023-03-26T17:42:33.552Z,1.53
2023-03-26T17:44:14.976Z,1.73
2023-03-26T17:46:03.220Z,1.82
2023-03-26T17:47:45.604Z,1.81
2023-03-26T17:49:26.915Z,2.12
2023-03-26T17:51:08.258Z,2.31
2023-03-26T17:52:49.612Z,2.58
2023-03-26T17:54:30.953Z,2.58
2023-03-26T17:56:12.238Z,2.80
2023-03-26T17:57:53.540Z,3.10
2023-03-26T17:59:35.303Z,2.86
2023-03-26T18:01:17.696Z,2.91
2023-03-26T18:02:59.090Z,3.14
2023-03-26T18:04:40.497Z,3.33
2023-03-26T18:06:21.852Z,3.16
2023-03-26T18:08:03.171Z,3.16
2023-03-26T18:09:44.692Z,3.42
2023-03-26T18:11:25.982Z,3.19
2023-03-26T18:13:07.299Z,3.37
2023-03-26T18:14:48.648Z,3.47
2023-03-26T18:16:29.971Z,3.63
2023-03-26T18:18:11.316Z,3.78
2023-03-26T18:19:52.648Z,3.26
2023-03-26T18:21:33.994Z,2.12
2023-03-26T18:23:15.311Z,1.48
2023-03-26T18:24:56.606Z,1.33
2023-03-26T18:26:38.211Z,1.40
2023-03-26T18:28:20.091Z,1.68
2023-03-26T18:30:03.155Z,1.78
2023-03-26T18:31:44.732Z,1.81
2023-03-26T18:33:26.022Z,1.41
2023-03-26T18:35:07.317Z,1.26
2023-03-26T18:36:48.577Z,1.08
2023-03-26T18:38:35.427Z,0.86
2023-03-26T18:40:19.749Z,1.13
2023-03-26T18:42:01.060Z,1.60
2023-03-26T18:43:44.299Z,2.03
2023-03-26T18:45:26.090Z,2.32
2023-03-26T18:47:07.404Z,2.40
2023-03-26T18:48:48.751Z,2.70
2023-03-26T18:50:30.158Z,2.84
2023-03-26T18:52:11.476Z,2.80
2023-03-26T18:53:52.872Z,2.89
2023-03-26T18:55:34.211Z,2.66
2023-03-26T18:57:15.688Z,2.71
2023-03-26T18:58:57.746Z,2.12
2023-03-26T19:00:39.076Z,1.88
2023-03-26T19:02:20.416Z,1.47
2023-03-26T19:04:01.742Z,1.19
2023-03-26T19:05:43.073Z,1.32
2023-03-26T19:07:24.364Z,1.46
2023-03-26T19:09:07.778Z,1.86
2023-03-26T19:10:55.223Z,1.57
2023-03-26T19:12:36.682Z,1.67
2023-03-26T19:14:17.928Z,2.00
2023-03-26T19:15:59.220Z,2.31
2023-03-26T19:17:40.620Z,2.17
2023-03-26T19:19:21.989Z,2.58
2023-03-26T19:21:03.348Z,2.93
2023-03-26T19:22:44.658Z,3.05
2023-03-26T19:24:25.964Z,2.88
2023-03-26T19:26:07.281Z,2.23
2023-03-26T19:27:48.611Z,1.96
2023-03-26T19:29:29.937Z,1.80
2023-03-26T19:31:11.445Z,1.79
2023-03-26T19:32:52.884Z,1.72
2023-03-26T19:34:34.314Z,1.70
2023-03-26T19:36:15.673Z,1.49
2023-03-26T19:37:56.959Z,1.28
2023-03-26T19:39:38.253Z,1.25
2023-03-26T19:41:19.600Z,1.60
2023-03-26T19:43:01.921Z,1.19
2023-03-26T19:44:43.954Z,0.64
2023-03-26T19:46:25.387Z,0.20
2023-03-26T19:48:14.214Z,-0.01
2023-03-26T19:49:56.503Z,-0.08
2023-03-26T19:51:37.797Z,-0.45
2023-03-26T19:53:19.133Z,-0.56
2023-03-26T19:55:00.561Z,-0.56
2023-03-26T19:56:42.228Z,-0.70
2023-03-26T19:58:23.623Z,-0.67
2023-03-26T20:00:04.953Z,-0.88
2023-03-26T20:01:46.298Z,-0.86
2023-03-26T20:03:27.718Z,-0.62
2023-03-26T20:05:09.093Z,-0.51
2023-03-26T20:06:50.380Z,-0.41
2023-03-26T20:08:31.707Z,-0.08
2023-03-26T20:10:13.010Z,-0.04
2023-03-26T20:11:54.304Z,0.48
2023-03-26T20:13:35.647Z,0.92
2023-03-26T20:15:19.445Z,1.41
2023-03-26T20:17:01.202Z,1.22
2023-03-26T20:18:42.697Z,1.08
2023-03-26T20:20:23.986Z,1.49
2023-03-26T20:22:06.278Z,1.29
2023-03-26T20:23:48.722Z,0.55
2023-03-26T20:25:31.214Z,0.21
2023-03-26T20:27:12.781Z,0.34
2023-03-26T20:28:54.060Z,-0.12
2023-03-26T20:30:37.740Z,-0.17
2023-03-26T20:32:19.263Z,0.26
2023-03-26T20:34:00.545Z,0.01
2023-03-26T20:35:41.895Z,-0.29
2023-03-26T20:37:23.195Z,-0.30
2023-03-26T20:39:04.476Z,-0.08
2023-03-26T20:40:45.760Z,0.22
2023-03-26T20:42:27.081Z,0.43
2023-03-26T20:44:08.425Z,0.43
2023-03-26T20:45:49.738Z,0.48
2023-03-26T20:47:31.066Z,1.07
2023-03-26T20:49:12.403Z,1.17
2023-03-26T20:50:53.795Z,1.16
2023-03-26T20:52:35.104Z,1.20
2023-03-26T20:54:16.404Z,0.77
2023-03-26T20:55:57.710Z,0.35
2023-03-26T20:57:39.008Z,0.47
2023-03-26T20:59:20.299Z,0.22
2023-03-26T21:01:01.723Z,0.28
2023-03-26T21:02:43.384Z,0.64
2023-03-26T21:04:24.994Z,1.05
2023-03-26T21:06:06.327Z,1.41
2023-03-26T21:07:47.637Z,1.80
2023-03-26T21:09:29.681Z,1.85
2023-03-26T21:11:10.975Z,1.66
2023-03-26T21:12:52.256Z,1.89
2023-03-26T21:14:33.535Z,2.09
2023-03-26T21:16:14.863Z,2.03
2023-03-26T21:17:56.228Z,2.27
2023-03-26T21:19:37.541Z,2.38
2023-03-26T21:21:21.517Z,2.33
2023-03-26T21:23:03.036Z,2.20
2023-03-26T21:24:44.337Z,2.24
2023-03-26T21:26:25.619Z,2.25
2023-03-26T21:28:06.944Z,1.68
2023-03-26T21:29:48.245Z,1.59
2023-03-26T21:31:29.572Z,1.83
2023-03-26T21:33:10.882Z,2.03
2023-03-26T21:34:58.764Z,2.37
2023-03-26T21:36:40.869Z,2.64
2023-03-26T21:38:22.171Z,2.65
2023-03-26T21:40:03.480Z,2.62
2023-03-26T21:41:44.755Z,2.60
2023-03-26T21:43:26.101Z,2.48
2023-03-26T21:45:07.426Z,2.31
2023-03-26T21:46:48.771Z,2.26
2023-03-26T21:48:30.105Z,2.17
2023-03-26T21:50:11.416Z,2.27
2023-03-26T21:51:52.721Z,2.38
2023-03-26T21:53:34.004Z,2.14
2023-03-26T21:55:15.297Z,1.84
2023-03-26T21:56:56.617Z,2.01
2023-03-26T21:58:37.920Z,1.91
2023-03-26T22:00:19.324Z,1.77
2023-03-26T22:02:00.639Z,1.42
2023-03-26T22:03:41.927Z,1.41
2023-03-26T22:05:23.301Z,1.45
2023-03-26T22:07:04.594Z,1.16
2023-03-26T22:08:45.887Z,1.06
2023-03-26T22:10:27.199Z,0.93
2023-03-26T22:12:08.511Z,0.94
2023-03-26T22:13:49.765Z,0.69
2023-03-26T22:15:31.269Z,0.57
2023-03-26T22:17:12.766Z,0.88
2023-03-26T22:18:54.061Z,1.24
2023-03-26T22:20:35.338Z,1.14
2023-03-26T22:22:16.653Z,0.98
2023-03-26T22:23:57.943Z,0.63
2023-03-26T22:25:39.213Z,0.29
2023-03-26T22:27:20.508Z,0.24
2023-03-26T22:29:01.779Z,0.68
2023-03-26T22:30:43.037Z,0.44
2023-03-26T22:32:24.360Z,0.72
2023-03-26T22:34:05.689Z,0.82
2023-03-26T22:35:47.020Z,0.97
2023-03-26T22:37:28.337Z,1.29
2023-03-26T22:39:09.635Z,1.34
2023-03-26T22:40:50.989Z,1.32